Time;durP1;ratioP1;P1;durP2;ratioP2;P2;SDS_P1;SDS_P2;PMS_P1;PMS_P2;Temp;Humidity;BMP_temperature;BMP_pressure;BME280_temperature;BME280_humidity;BME280_pressure;Samples;Min_cycle;Max_cycle;Signal;HPM_P1;HPM_P2
2021/12/26 00:01:29;;;;;;;11.75;3.28;;;;;;;;;;5155059;27;20097;-72
2021/12/26 00:03:56;;;;;;;13.00;3.95;;;;;;;;;;5154835;27;20106;-73
2021/12/26 00:06:26;;;;;;;12.27;3.20;;;;;;;;;;5136096;27;20015;-73
2021/12/26 00:08:54;;;;;;;10.27;3.08;;;;;;;;;;5154912;27;20361;-72
2021/12/26 00:11:22;;;;;;;13.43;3.40;;;;;;;;;;5154936;27;20387;-73
2021/12/26 00:13:50;;;;;;;16.58;4.13;;;;;;;;;;5153877;27;20019;-72
2021/12/26 00:16:17;;;;;;;11.80;3.33;;;;;;;;;;5154859;27;20122;-73
2021/12/26 00:18:46;;;;;;;12.57;3.58;;;;;;;;;;5135822;27;20105;-73
2021/12/26 00:21:17;;;;;;;10.85;3.40;;;;;;;;;;5154653;27;20023;-73
2021/12/26 00:23:45;;;;;;;12.30;3.40;;;;;;;;;;5135819;27;20030;-73
2021/12/26 00:26:12;;;;;;;12.13;3.85;;;;;;;;;;5135917;27;20078;-73
2021/12/26 00:28:39;;;;;;;11.80;3.42;;;;;;;;;;5154680;27;20014;-73
2021/12/26 00:31:07;;;;;;;12.93;3.42;;;;;;;;;;5154662;27;20121;-74
2021/12/26 00:33:34;;;;;;;14.35;3.60;;;;;;;;;;5135762;27;20110;-73
2021/12/26 00:36:02;;;;;;;11.57;2.80;;;;;;;;;;5154656;27;20023;-74
2021/12/26 00:38:29;;;;;;;11.90;3.20;;;;;;;;;;5154447;27;20075;-73
2021/12/26 00:40:56;;;;;;;10.77;2.75;;;;;;;;;;5154146;27;20026;-74
2021/12/26 00:43:24;;;;;;;9.32;3.15;;;;;;;;;;5154581;27;20026;-73
2021/12/26 00:45:51;;;;;;;9.18;2.60;;;;;;;;;;5154362;27;20064;-73
2021/12/26 00:48:18;;;;;;;8.70;2.65;;;;;;;;;;5154477;27;20034;-73
2021/12/26 00:50:45;;;;;;;9.95;3.22;;;;;;;;;;5154405;27;20022;-73
2021/12/26 00:53:13;;;;;;;9.82;2.88;;;;;;;;;;5154276;27;20562;-73
2021/12/26 00:55:40;;;;;;;7.15;2.45;;;;;;;;;;5135524;27;20502;-73
2021/12/26 00:58:08;;;;;;;7.85;2.80;;;;;;;;;;5154136;27;20022;-73
2021/12/26 01:00:45;;;;;;;7.10;2.45;;;;;;;;;;5135774;27;20029;-74
2021/12/26 01:03:13;;;;;;;9.77;2.75;;;;;;;;;;5154252;27;20045;-74
2021/12/26 01:05:42;;;;;;;9.75;2.58;;;;;;;;;;5135530;27;20091;-73
2021/12/26 01:08:10;;;;;;;8.57;2.90;;;;;;;;;;5135010;27;20019;-73
2021/12/26 01:10:39;;;;;;;8.48;2.50;;;;;;;;;;5135251;27;20038;-74
2021/12/26 01:13:27;;;;;;;6.93;2.35;;;;;;;;;;5154069;27;20046;-74
2021/12/26 01:15:57;;;;;;;9.65;2.78;;;;;;;;;;5154086;27;20545;-73
2021/12/26 01:18:25;;;;;;;8.73;2.60;;;;;;;;;;5134996;27;20542;-73
2021/12/26 01:20:57;;;;;;;8.75;2.42;;;;;;;;;;5135224;27;20537;-73
2021/12/26 01:23:26;;;;;;;8.80;2.60;;;;;;;;;;5154194;27;20011;-74
2021/12/26 01:25:53;;;;;;;10.18;2.30;;;;;;;;;;5156629;27;20431;-74
2021/12/26 01:28:21;;;;;;;9.52;2.85;;;;;;;;;;5139109;27;20390;-74
2021/12/26 01:30:48;;;;;;;6.15;2.90;;;;;;;;;;5157852;27;20094;-73
2021/12/26 01:33:17;;;;;;;7.40;2.35;;;;;;;;;;5157853;27;20086;-73
2021/12/26 01:35:44;;;;;;;5.68;2.08;;;;;;;;;;5157852;27;20579;-73
2021/12/26 01:38:14;;;;;;;8.10;2.47;;;;;;;;;;5138866;27;20440;-74
2021/12/26 01:40:47;;;;;;;9.35;2.30;;;;;;;;;;5157617;27;20018;-73
2021/12/26 01:43:15;;;;;;;6.93;2.40;;;;;;;;;;5157723;27;20019;-73
2021/12/26 01:45:43;;;;;;;6.90;2.10;;;;;;;;;;5138729;27;20019;-74
2021/12/26 01:48:12;;;;;;;7.85;2.25;;;;;;;;;;5138624;27;20509;-74
2021/12/26 01:50:43;;;;;;;7.95;2.50;;;;;;;;;;5157381;27;20105;-73
2021/12/26 01:53:10;;;;;;;7.70;2.60;;;;;;;;;;5138446;27;20038;-74
2021/12/26 01:55:44;;;;;;;7.10;2.50;;;;;;;;;;5157398;27;20023;-74
2021/12/26 01:58:16;;;;;;;7.68;2.28;;;;;;;;;;5157579;27;20046;-74
2021/12/26 02:00:45;;;;;;;7.15;2.28;;;;;;;;;;5157171;27;20045;-73
2021/12/26 02:03:12;;;;;;;7.53;2.00;;;;;;;;;;5157237;27;20019;-73
2021/12/26 02:05:40;;;;;;;6.95;2.55;;;;;;;;;;5138612;27;20027;-73
2021/12/26 02:08:08;;;;;;;7.55;2.13;;;;;;;;;;5157361;27;20065;-73
2021/12/26 02:10:35;;;;;;;10.45;2.38;;;;;;;;;;5138824;27;20033;-74
2021/12/26 02:13:02;;;;;;;6.90;2.28;;;;;;;;;;5138154;27;20490;-74
2021/12/26 02:15:29;;;;;;;7.00;2.33;;;;;;;;;;5157222;27;20043;-74
2021/12/26 02:17:57;;;;;;;6.97;2.40;;;;;;;;;;5138556;27;20412;-74
2021/12/26 02:23:24;;;;;;;6.43;2.28;;;;;;;;;;5152915;27;20502;-74
2021/12/26 02:28:26;;;;;;;7.25;2.40;;;;;;;;;;5157093;27;20483;-74
2021/12/26 02:30:55;;;;;;;7.55;2.13;;;;;;;;;;5156978;27;20051;-74
2021/12/26 02:33:22;;;;;;;10.27;2.70;;;;;;;;;;5138021;27;20380;-74
2021/12/26 02:35:50;;;;;;;6.85;1.95;;;;;;;;;;5137745;27;20074;-74
2021/12/26 02:38:18;;;;;;;6.95;2.28;;;;;;;;;;5137234;27;20030;-74
2021/12/26 02:40:49;;;;;;;10.57;2.53;;;;;;;;;;5156665;27;20034;-74
2021/12/26 02:43:17;;;;;;;9.07;2.45;;;;;;;;;;5156508;27;20027;-74
2021/12/26 02:45:44;;;;;;;7.38;3.03;;;;;;;;;;5156680;27;20101;-73
2021/12/26 02:48:12;;;;;;;11.07;2.45;;;;;;;;;;5156606;27;20014;-74
2021/12/26 02:50:39;;;;;;;12.00;2.78;;;;;;;;;;5156508;27;20021;-73
2021/12/26 02:53:07;;;;;;;9.45;3.10;;;;;;;;;;5137600;27;20107;-74
2021/12/26 02:55:35;;;;;;;8.05;2.47;;;;;;;;;;5156453;27;20498;-74
2021/12/26 02:58:06;;;;;;;8.98;2.40;;;;;;;;;;5137719;27;20037;-73
2021/12/26 03:00:36;;;;;;;9.57;3.10;;;;;;;;;;5156258;27;20019;-74
2021/12/26 03:03:05;;;;;;;8.10;2.63;;;;;;;;;;5156340;27;20027;-73
2021/12/26 03:05:33;;;;;;;7.63;2.45;;;;;;;;;;5137254;27;20019;-73
2021/12/26 03:08:00;;;;;;;6.47;2.30;;;;;;;;;;5156167;27;20093;-74
2021/12/26 03:10:28;;;;;;;11.93;3.25;;;;;;;;;;5156276;27;20023;-73
2021/12/26 03:12:56;;;;;;;9.38;2.80;;;;;;;;;;5156034;27;20106;-74
2021/12/26 03:15:25;;;;;;;7.65;2.72;;;;;;;;;;5156043;27;20046;-74
2021/12/26 03:17:52;;;;;;;8.93;2.75;;;;;;;;;;5155877;27;20019;-74
2021/12/26 03:20:21;;;;;;;9.55;2.85;;;;;;;;;;5137302;27;20023;-74
2021/12/26 03:22:48;;;;;;;6.97;2.72;;;;;;;;;;5136924;27;20022;-74
2021/12/26 03:25:17;;;;;;;8.60;2.63;;;;;;;;;;5155854;27;20068;-73
2021/12/26 03:27:44;;;;;;;9.48;2.63;;;;;;;;;;5137291;27;20019;-74
2021/12/26 03:30:13;;;;;;;8.60;2.45;;;;;;;;;;5155799;27;20027;-73
2021/12/26 03:32:40;;;;;;;9.63;2.90;;;;;;;;;;5155702;27;20019;-74
2021/12/26 03:35:08;;;;;;;9.63;2.60;;;;;;;;;;5136613;27;20102;-73
2021/12/26 03:37:35;;;;;;;9.77;2.50;;;;;;;;;;5137095;27;20033;-73
2021/12/26 03:40:04;;;;;;;8.10;2.83;;;;;;;;;;5155507;27;20026;-74
2021/12/26 03:42:31;;;;;;;5.88;2.50;;;;;;;;;;5136826;27;20034;-73
2021/12/26 03:44:59;;;;;;;10.23;2.67;;;;;;;;;;5136828;27;20103;-73
2021/12/26 03:47:26;;;;;;;7.40;3.10;;;;;;;;;;5155032;27;20026;-74
2021/12/26 03:49:53;;;;;;;7.55;2.75;;;;;;;;;;5155341;27;20068;-73
2021/12/26 03:52:24;;;;;;;11.10;3.22;;;;;;;;;;5136497;27;20023;-74
2021/12/26 03:54:52;;;;;;;10.15;3.05;;;;;;;;;;5155164;27;20099;-74
2021/12/26 03:57:20;;;;;;;9.38;2.80;;;;;;;;;;5155249;27;20045;-73
2021/12/26 03:59:47;;;;;;;8.13;2.58;;;;;;;;;;5136234;27;20031;-73
2021/12/26 04:02:15;;;;;;;8.07;2.50;;;;;;;;;;5154996;27;20101;-74
2021/12/26 04:04:43;;;;;;;6.68;2.28;;;;;;;;;;5136489;27;20023;-74
2021/12/26 04:07:11;;;;;;;8.63;2.88;;;;;;;;;;5136187;27;20110;-74
2021/12/26 04:09:38;;;;;;;7.57;2.67;;;;;;;;;;5154701;27;20027;-74
2021/12/26 04:12:06;;;;;;;9.77;3.10;;;;;;;;;;5154984;27;20029;-74
2021/12/26 04:14:33;;;;;;;9.52;2.88;;;;;;;;;;5154852;27;20110;-73
2021/12/26 04:17:00;;;;;;;8.20;2.88;;;;;;;;;;5155065;27;20022;-73
2021/12/26 04:19:28;;;;;;;11.80;3.47;;;;;;;;;;5154809;27;20076;-73
2021/12/26 04:21:55;;;;;;;12.85;3.90;;;;;;;;;;5136137;27;20023;-74
2021/12/26 04:24:22;;;;;;;11.27;3.72;;;;;;;;;;5135820;27;20030;-73
2021/12/26 04:26:50;;;;;;;10.73;4.13;;;;;;;;;;5135905;27;20019;-73
2021/12/26 04:29:17;;;;;;;15.20;4.07;;;;;;;;;;5136199;27;20019;-73
2021/12/26 04:31:44;;;;;;;13.48;3.58;;;;;;;;;;5135892;27;20027;-73
2021/12/26 04:34:11;;;;;;;11.77;5.00;;;;;;;;;;5154624;27;20026;-73
2021/12/26 04:36:38;;;;;;;12.60;4.47;;;;;;;;;;5154505;27;20027;-73
2021/12/26 04:39:06;;;;;;;18.55;4.35;;;;;;;;;;5154674;27;20390;-74
2021/12/26 04:41:33;;;;;;;21.40;5.25;;;;;;;;;;5154367;27;20424;-74
2021/12/26 04:44:00;;;;;;;17.20;4.88;;;;;;;;;;5154431;27;20018;-73
2021/12/26 04:46:27;;;;;;;13.35;4.13;;;;;;;;;;5154409;27;20021;-73
2021/12/26 04:48:54;;;;;;;13.32;4.35;;;;;;;;;;5154613;27;20478;-73
2021/12/26 04:51:22;;;;;;;15.77;5.03;;;;;;;;;;5135596;27;20118;-72
2021/12/26 04:53:49;;;;;;;15.15;3.75;;;;;;;;;;5154374;27;20430;-73
2021/12/26 04:56:16;;;;;;;14.70;4.57;;;;;;;;;;5154351;27;20045;-73
2021/12/26 04:58:43;;;;;;;18.55;4.85;;;;;;;;;;5154374;27;20019;-73
2021/12/26 05:01:10;;;;;;;16.50;5.03;;;;;;;;;;5138610;27;20431;-73
2021/12/26 05:03:37;;;;;;;15.52;4.60;;;;;;;;;;5139995;27;20021;-73
2021/12/26 05:06:05;;;;;;;15.52;4.60;;;;;;;;;;5158530;27;20378;-73
2021/12/26 05:08:32;;;;;;;15.98;4.07;;;;;;;;;;5158693;27;20018;-74
2021/12/26 05:10:59;;;;;;;19.42;4.88;;;;;;;;;;5139591;27;20394;-73
2021/12/26 05:13:26;;;;;;;20.85;5.90;;;;;;;;;;5139537;27;20037;-73
2021/12/26 05:15:53;;;;;;;17.10;4.60;;;;;;;;;;5158379;27;20025;-73
2021/12/26 05:18:20;;;;;;;16.80;5.13;;;;;;;;;;5158417;27;20023;-73
2021/12/26 05:20:48;;;;;;;17.27;6.18;;;;;;;;;;5158165;27;20043;-73
2021/12/26 05:23:15;;;;;;;21.83;6.20;;;;;;;;;;5139661;27;20067;-73
2021/12/26 05:25:42;;;;;;;21.27;5.45;;;;;;;;;;5139250;27;20471;-73
2021/12/26 05:28:09;;;;;;;20.75;6.00;;;;;;;;;;5158117;27;20021;-73
2021/12/26 05:30:36;;;;;;;19.60;5.72;;;;;;;;;;5139139;27;20459;-73
2021/12/26 05:33:03;;;;;;;21.85;5.85;;;;;;;;;;5158083;27;20030;-73
2021/12/26 05:35:31;;;;;;;23.63;5.97;;;;;;;;;;5139308;27;20019;-73
2021/12/26 05:37:59;;;;;;;21.42;6.43;;;;;;;;;;5157936;27;20464;-73
2021/12/26 05:40:26;;;;;;;17.67;5.50;;;;;;;;;;5157918;27;20475;-73
2021/12/26 05:42:53;;;;;;;24.17;6.05;;;;;;;;;;5157837;27;20023;-72
2021/12/26 05:45:20;;;;;;;20.67;6.90;;;;;;;;;;5157889;27;20019;-73
2021/12/26 05:47:48;;;;;;;23.85;6.53;;;;;;;;;;5157828;27;20018;-73
2021/12/26 05:50:19;;;;;;;25.48;7.05;;;;;;;;;;5157812;27;20037;-73
2021/12/26 05:52:46;;;;;;;23.48;7.50;;;;;;;;;;5138721;27;20019;-73
2021/12/26 05:55:14;;;;;;;26.20;8.05;;;;;;;;;;5157712;27;20048;-74
2021/12/26 05:57:41;;;;;;;23.70;7.22;;;;;;;;;;5138495;27;20023;-74
2021/12/26 06:00:10;;;;;;;24.50;7.97;;;;;;;;;;5157691;27;20019;-74
2021/12/26 06:02:37;;;;;;;25.25;7.72;;;;;;;;;;5138622;27;20033;-74
2021/12/26 06:05:04;;;;;;;21.92;8.20;;;;;;;;;;5157454;27;20028;-74
2021/12/26 06:07:32;;;;;;;25.08;8.13;;;;;;;;;;5138865;27;20444;-74
2021/12/26 06:09:59;;;;;;;22.00;7.93;;;;;;;;;;5138631;27;20023;-73
2021/12/26 06:12:26;;;;;;;17.13;7.40;;;;;;;;;;5157301;27;20030;-73
2021/12/26 06:14:53;;;;;;;19.63;7.07;;;;;;;;;;5138748;27;20395;-74
2021/12/26 06:17:20;;;;;;;18.63;7.28;;;;;;;;;;5157267;27;20030;-75
2021/12/26 06:19:48;;;;;;;20.25;7.55;;;;;;;;;;5157231;27;20018;-74
2021/12/26 06:22:16;;;;;;;18.52;6.72;;;;;;;;;;5138126;27;20026;-73
2021/12/26 06:24:43;;;;;;;11.77;6.20;;;;;;;;;;5138259;27;20019;-73
2021/12/26 06:27:10;;;;;;;15.98;5.82;;;;;;;;;;5138690;27;20023;-73
2021/12/26 06:29:38;;;;;;;16.08;5.97;;;;;;;;;;5138280;27;20513;-73
2021/12/26 06:32:05;;;;;;;15.55;6.32;;;;;;;;;;5138247;27;20045;-73
2021/12/26 06:34:32;;;;;;;16.25;5.13;;;;;;;;;;5138434;27;20482;-74
2021/12/26 06:37:03;;;;;;;11.00;4.30;;;;;;;;;;5157063;27;20034;-74
2021/12/26 06:39:30;;;;;;;9.10;3.90;;;;;;;;;;5156902;27;20023;-74
2021/12/26 06:41:58;;;;;;;9.48;3.90;;;;;;;;;;5137948;27;20390;-74
2021/12/26 06:44:26;;;;;;;12.90;4.95;;;;;;;;;;5138504;27;20027;-73
2021/12/26 06:46:53;;;;;;;8.82;3.13;;;;;;;;;;5156882;27;20018;-73
2021/12/26 06:49:20;;;;;;;8.23;3.22;;;;;;;;;;5156722;27;20379;-74
2021/12/26 06:51:48;;;;;;;7.80;3.00;;;;;;;;;;5156729;27;20019;-73
2021/12/26 06:54:15;;;;;;;9.07;3.13;;;;;;;;;;5137367;27;20042;-73
2021/12/26 06:56:42;;;;;;;5.35;2.55;;;;;;;;;;5138019;27;20026;-72
2021/12/26 06:59:10;;;;;;;6.18;2.60;;;;;;;;;;5156513;27;20023;-74
2021/12/26 07:01:37;;;;;;;6.32;2.35;;;;;;;;;;5156342;27;20023;-73
2021/12/26 07:04:04;;;;;;;7.90;1.90;;;;;;;;;;5156275;27;20029;-73
2021/12/26 07:06:31;;;;;;;7.13;1.95;;;;;;;;;;5137590;27;20028;-73
2021/12/26 07:08:59;;;;;;;4.68;1.90;;;;;;;;;;5137472;27;20422;-73
2021/12/26 07:11:26;;;;;;;5.40;2.15;;;;;;;;;;5137198;27;20135;-75
2021/12/26 07:13:53;;;;;;;5.43;1.83;;;;;;;;;;5137123;27;20026;-73
2021/12/26 07:16:22;;;;;;;3.30;1.13;;;;;;;;;;5137594;27;20033;-73
2021/12/26 07:18:49;;;;;;;3.88;1.10;;;;;;;;;;5155975;27;20053;-74
2021/12/26 07:21:16;;;;;;;5.55;1.60;;;;;;;;;;5155887;27;20046;-74
2021/12/26 07:23:43;;;;;;;6.72;1.63;;;;;;;;;;5155291;27;20031;-74
2021/12/26 07:26:10;;;;;;;8.18;1.30;;;;;;;;;;5137271;27;20015;-73
2021/12/26 07:28:37;;;;;;;7.95;1.25;;;;;;;;;;5155867;27;20094;-74
2021/12/26 07:31:05;;;;;;;6.05;1.55;;;;;;;;;;5136714;27;20019;-74
2021/12/26 07:33:32;;;;;;;4.68;1.40;;;;;;;;;;5136968;27;20022;-74
2021/12/26 07:36:00;;;;;;;5.65;1.60;;;;;;;;;;5155672;27;20155;-74
2021/12/26 07:38:27;;;;;;;8.20;1.52;;;;;;;;;;5136667;27;20034;-74
2021/12/26 07:40:54;;;;;;;10.80;1.85;;;;;;;;;;5155488;27;20051;-74
2021/12/26 07:43:21;;;;;;;7.50;1.73;;;;;;;;;;5137003;27;20050;-74
2021/12/26 07:45:48;;;;;;;11.63;1.88;;;;;;;;;;5155595;27;20018;-74
2021/12/26 07:48:16;;;;;;;10.70;1.55;;;;;;;;;;5155701;27;20011;-74
2021/12/26 07:50:43;;;;;;;8.95;1.48;;;;;;;;;;5136380;27;20421;-74
2021/12/26 07:53:11;;;;;;;8.73;1.98;;;;;;;;;;5136600;27;20559;-73
2021/12/26 07:55:39;;;;;;;8.40;1.65;;;;;;;;;;5155217;27;20025;-75
2021/12/26 07:58:07;;;;;;;7.85;1.73;;;;;;;;;;5155446;27;20026;-74
2021/12/26 08:00:34;;;;;;;8.65;1.75;;;;;;;;;;5155061;27;20109;-74
2021/12/26 08:03:02;;;;;;;7.63;1.38;;;;;;;;;;5155254;27;20387;-74
2021/12/26 08:05:29;;;;;;;8.90;1.73;;;;;;;;;;5155032;27;20015;-73
2021/12/26 08:07:56;;;;;;;9.63;1.63;;;;;;;;;;5155257;27;20023;-73
2021/12/26 08:10:23;;;;;;;8.20;1.65;;;;;;;;;;5155125;27;20019;-72
2021/12/26 08:12:51;;;;;;;8.25;1.40;;;;;;;;;;5136445;27;20068;-72
2021/12/26 08:15:18;;;;;;;9.35;1.50;;;;;;;;;;5135832;27;20451;-72
2021/12/26 08:17:45;;;;;;;9.82;1.73;;;;;;;;;;5155038;27;20144;-73
2021/12/26 08:20:13;;;;;;;7.78;1.80;;;;;;;;;;5154782;27;20019;-73
2021/12/26 08:22:40;;;;;;;7.55;1.75;;;;;;;;;;5154688;27;20105;-72
2021/12/26 08:25:07;;;;;;;6.63;1.38;;;;;;;;;;5154726;27;20019;-73
2021/12/26 08:27:35;;;;;;;4.57;1.05;;;;;;;;;;5154428;27;20475;-72
2021/12/26 08:30:02;;;;;;;8.20;1.80;;;;;;;;;;5154655;27;20015;-73
2021/12/26 08:32:32;;;;;;;6.65;1.48;;;;;;;;;;5135747;27;20037;-73
2021/12/26 08:35:00;;;;;;;8.43;1.58;;;;;;;;;;5153821;27;20025;-73
2021/12/26 08:37:28;;;;;;;7.45;1.70;;;;;;;;;;5135988;27;20462;-73
2021/12/26 08:39:55;;;;;;;9.93;1.50;;;;;;;;;;5154747;27;20018;-73
2021/12/26 08:42:22;;;;;;;6.68;1.63;;;;;;;;;;5154620;27;20523;-73
2021/12/26 08:44:52;;;;;;;7.28;1.60;;;;;;;;;;5154698;27;20022;-73
2021/12/26 08:47:19;;;;;;;6.47;1.27;;;;;;;;;;5135799;27;20019;-72
2021/12/26 08:49:46;;;;;;;10.73;2.33;;;;;;;;;;5135844;27;20035;-72
2021/12/26 08:52:14;;;;;;;8.10;1.70;;;;;;;;;;5135648;27;20022;-73
2021/12/26 08:54:41;;;;;;;7.03;1.45;;;;;;;;;;5154264;27;20047;-74
2021/12/26 08:57:09;;;;;;;9.77;1.48;;;;;;;;;;5118984;27;20113;-75
2021/12/26 08:59:37;;;;;;;8.63;1.80;;;;;;;;;;5154553;27;20031;-74
2021/12/26 09:02:08;;;;;;;11.88;1.90;;;;;;;;;;5154429;27;20102;-72
2021/12/26 09:04:37;;;;;;;5.80;1.30;;;;;;;;;;5135546;27;20068;-73
2021/12/26 09:07:04;;;;;;;7.22;1.50;;;;;;;;;;5136121;27;20063;-73
2021/12/26 09:09:32;;;;;;;11.55;2.22;;;;;;;;;;5135630;27;20042;-74
2021/12/26 09:12:00;;;;;;;8.95;1.58;;;;;;;;;;5135309;27;20023;-74
2021/12/26 09:14:30;;;;;;;10.73;1.70;;;;;;;;;;5154382;27;20072;-73
2021/12/26 09:16:58;;;;;;;7.60;1.40;;;;;;;;;;5154291;27;20391;-73
2021/12/26 09:19:28;;;;;;;7.55;1.70;;;;;;;;;;5135883;27;20372;-74
2021/12/26 09:21:56;;;;;;;11.40;1.73;;;;;;;;;;5154385;27;20022;-73
2021/12/26 09:24:23;;;;;;;7.63;1.98;;;;;;;;;;5154375;27;20029;-74
2021/12/26 09:26:50;;;;;;;9.00;1.70;;;;;;;;;;5154322;27;20011;-73
2021/12/26 09:29:17;;;;;;;9.02;2.35;;;;;;;;;;5135516;27;20482;-73
2021/12/26 09:31:46;;;;;;;8.55;1.42;;;;;;;;;;5154200;27;20383;-74
2021/12/26 09:34:16;;;;;;;10.98;1.73;;;;;;;;;;5135650;27;20037;-73
2021/12/26 09:36:44;;;;;;;5.05;1.15;;;;;;;;;;5154322;27;20505;-73
2021/12/26 09:39:14;;;;;;;6.57;1.13;;;;;;;;;;5134923;27;20429;-73
2021/12/26 09:41:42;;;;;;;6.10;1.13;;;;;;;;;;5154110;27;20053;-73
2021/12/26 09:44:09;;;;;;;6.60;1.15;;;;;;;;;;5154165;27;20352;-72
2021/12/26 09:46:38;;;;;;;6.55;1.27;;;;;;;;;;5156382;27;20077;-73
2021/12/26 09:49:05;;;;;;;7.22;1.30;;;;;;;;;;5139285;27;20091;-73
2021/12/26 09:51:33;;;;;;;9.15;1.98;;;;;;;;;;5139472;27;20027;-73
2021/12/26 09:54:00;;;;;;;7.22;1.30;;;;;;;;;;5139027;27;20507;-74
2021/12/26 09:56:28;;;;;;;5.80;1.20;;;;;;;;;;5157957;27;20046;-72
2021/12/26 09:59:00;;;;;;;7.15;1.38;;;;;;;;;;5157852;27;20350;-73
2021/12/26 10:01:36;;;;;;;6.88;1.23;;;;;;;;;;5122205;27;20376;-73
2021/12/26 10:04:15;;;;;;;5.95;1.05;;;;;;;;;;5138511;27;20027;-73
2021/12/26 10:06:45;;;;;;;6.32;1.40;;;;;;;;;;5157633;27;20459;-72
2021/12/26 10:09:12;;;;;;;7.47;1.55;;;;;;;;;;5157574;27;20018;-73
2021/12/26 10:11:42;;;;;;;6.40;1.15;;;;;;;;;;5138933;27;20057;-73
2021/12/26 10:14:10;;;;;;;6.57;1.30;;;;;;;;;;5157472;27;20474;-73
2021/12/26 10:16:57;;;;;;;10.57;2.00;;;;;;;;;;5157585;27;20061;-74
2021/12/26 10:19:25;;;;;;;4.88;0.82;;;;;;;;;;5157288;27;20447;-74
2021/12/26 10:21:53;;;;;;;8.35;1.67;;;;;;;;;;5157190;27;20046;-73
2021/12/26 10:24:25;;;;;;;4.75;1.00;;;;;;;;;;5138644;27;20015;-73
2021/12/26 10:26:52;;;;;;;5.15;1.00;;;;;;;;;;5157238;27;20029;-73
2021/12/26 10:29:22;;;;;;;6.55;1.23;;;;;;;;;;5157245;27;20038;-73
2021/12/26 10:31:55;;;;;;;5.82;1.15;;;;;;;;;;5138611;27;20101;-72
2021/12/26 10:34:24;;;;;;;8.52;1.73;;;;;;;;;;5138048;27;20026;-72
2021/12/26 10:36:56;;;;;;;3.80;0.80;;;;;;;;;;5157064;27;20021;-73
2021/12/26 10:39:25;;;;;;;7.72;1.60;;;;;;;;;;5156935;27;20364;-73
2021/12/26 10:41:54;;;;;;;6.45;1.20;;;;;;;;;;5138044;27;20073;-73
2021/12/26 10:44:29;;;;;;;7.95;1.27;;;;;;;;;;5156903;27;20040;-73
2021/12/26 10:46:58;;;;;;;5.15;1.17;;;;;;;;;;5138191;27;20394;-74
2021/12/26 10:49:30;;;;;;;6.00;1.00;;;;;;;;;;5137589;27;20029;-73
2021/12/26 10:51:58;;;;;;;7.65;1.33;;;;;;;;;;5138084;27;20105;-73
2021/12/26 10:54:27;;;;;;;6.95;1.40;;;;;;;;;;5156468;27;20050;-73
2021/12/26 10:57:04;;;;;;;6.93;1.50;;;;;;;;;;5156189;27;20384;-73
2021/12/26 10:59:32;;;;;;;4.45;1.40;;;;;;;;;;5156239;27;20022;-73
2021/12/26 11:01:59;;;;;;;7.72;1.48;;;;;;;;;;5137541;27;20019;-70
2021/12/26 11:04:28;;;;;;;8.63;1.45;;;;;;;;;;5156377;27;20023;-70
2021/12/26 11:07:02;;;;;;;7.32;1.55;;;;;;;;;;5156441;27;20094;-70
2021/12/26 11:09:29;;;;;;;9.32;1.92;;;;;;;;;;5137615;27;20027;-76
2021/12/26 11:12:00;;;;;;;8.32;2.30;;;;;;;;;;5156483;27;20019;-73
2021/12/26 11:14:28;;;;;;;9.38;2.30;;;;;;;;;;5156497;27;20033;-75
2021/12/26 11:16:55;;;;;;;6.65;1.80;;;;;;;;;;5156494;27;20023;-76
2021/12/26 11:19:45;;;;;;;10.40;1.88;;;;;;;;;;5156841;27;20042;-74
2021/12/26 11:22:12;;;;;;;9.65;2.17;;;;;;;;;;5156486;27;20038;-75
2021/12/26 11:24:40;;;;;;;9.32;1.92;;;;;;;;;;5156373;27;20097;-77
2021/12/26 11:27:08;;;;;;;7.38;1.73;;;;;;;;;;5137468;27;20066;-77
2021/12/26 11:29:35;;;;;;;8.70;2.30;;;;;;;;;;5156185;27;20432;-77
2021/12/26 11:32:06;;;;;;;9.02;2.55;;;;;;;;;;5156264;27;20030;-77
2021/12/26 11:34:33;;;;;;;9.18;2.15;;;;;;;;;;5156192;27;20026;-77
2021/12/26 11:37:01;;;;;;;13.93;2.78;;;;;;;;;;5155912;27;20094;-78
2021/12/26 11:39:28;;;;;;;12.25;3.08;;;;;;;;;;5137162;27;20026;-78
2021/12/26 11:42:02;;;;;;;11.88;2.95;;;;;;;;;;5136925;27;20029;-78
2021/12/26 11:44:47;;;;;;;9.77;2.70;;;;;;;;;;5137106;27;20109;-77
2021/12/26 11:47:21;;;;;;;13.13;3.05;;;;;;;;;;5155580;27;20050;-77
2021/12/26 11:50:04;;;;;;;13.98;2.50;;;;;;;;;;5155460;27;20019;-78
2021/12/26 11:52:40;;;;;;;10.73;2.00;;;;;;;;;;5155631;27;20546;-78
2021/12/26 11:55:10;;;;;;;10.30;2.50;;;;;;;;;;5156248;27;20034;-78
2021/12/26 11:57:56;;;;;;;10.35;2.38;;;;;;;;;;5155468;27;20019;-78
2021/12/26 12:00:33;;;;;;;10.40;2.42;;;;;;;;;;5136831;27;20027;-78
2021/12/26 12:03:02;;;;;;;10.23;2.45;;;;;;;;;;5136705;27;20026;-78
2021/12/26 12:05:36;;;;;;;9.02;2.50;;;;;;;;;;5155367;27;20382;-78
2021/12/26 12:08:05;;;;;;;10.43;2.35;;;;;;;;;;5155508;27;20021;-78
2021/12/26 12:10:37;;;;;;;7.55;2.17;;;;;;;;;;5155479;27;20441;-78
2021/12/26 12:13:05;;;;;;;14.15;2.70;;;;;;;;;;5136629;27;20018;-80
2021/12/26 12:15:43;;;;;;;11.38;3.00;;;;;;;;;;5155065;27;20308;-78
2021/12/26 12:18:12;;;;;;;14.43;2.25;;;;;;;;;;5155194;27;20090;-78
2021/12/26 12:20:39;;;;;;;10.60;2.72;;;;;;;;;;5155021;27;20029;-79
2021/12/26 12:23:09;;;;;;;12.32;2.58;;;;;;;;;;5136105;27;20027;-78
2021/12/26 12:25:38;;;;;;;12.75;2.75;;;;;;;;;;5154956;27;20101;-77
2021/12/26 12:28:09;;;;;;;8.15;2.35;;;;;;;;;;5154968;27;20085;-79
2021/12/26 12:30:38;;;;;;;9.32;2.20;;;;;;;;;;5154804;27;20027;-76
2021/12/26 12:33:15;;;;;;;11.07;2.55;;;;;;;;;;5136580;27;20042;-77
2021/12/26 12:35:49;;;;;;;8.30;2.50;;;;;;;;;;5154787;27;20470;-77
2021/12/26 12:38:24;;;;;;;7.78;2.58;;;;;;;;;;5154887;27;20064;-77
2021/12/26 12:40:51;;;;;;;11.02;2.33;;;;;;;;;;5136031;27;20022;-77
2021/12/26 12:43:20;;;;;;;8.93;2.30;;;;;;;;;;5135900;27;20072;-77
2021/12/26 12:45:54;;;;;;;11.75;2.58;;;;;;;;;;5135850;27;20431;-77
2021/12/26 12:48:25;;;;;;;12.13;2.33;;;;;;;;;;5135911;27;20080;-76
2021/12/26 12:50:54;;;;;;;7.13;1.30;;;;;;;;;;5154630;27;20390;-78
2021/12/26 12:53:41;;;;;;;10.13;1.90;;;;;;;;;;5154484;27;20491;-78
2021/12/26 12:56:32;;;;;;;9.45;1.67;;;;;;;;;;5154740;27;20058;-77
2021/12/26 12:59:19;;;;;;;6.60;1.83;;;;;;;;;;5135688;27;20390;-75
2021/12/26 13:02:18;;;;;;;12.55;2.22;;;;;;;;;;5135824;27;20031;-77
2021/12/26 13:04:45;;;;;;;12.48;1.95;;;;;;;;;;5098232;27;20027;-79
2021/12/26 13:07:17;;;;;;;9.70;2.53;;;;;;;;;;5154369;27;20428;-77
2021/12/26 13:09:49;;;;;;;6.95;2.20;;;;;;;;;;5154362;27;20015;-77
2021/12/26 13:12:17;;;;;;;7.10;1.65;;;;;;;;;;5135437;27;20034;-77
2021/12/26 13:14:45;;;;;;;9.88;1.83;;;;;;;;;;5135544;27;20105;-76
2021/12/26 13:17:18;;;;;;;6.35;1.50;;;;;;;;;;5135737;27;20092;-77
2021/12/26 13:19:45;;;;;;;7.78;1.75;;;;;;;;;;5154437;27;20019;-78
2021/12/26 13:22:12;;;;;;;7.25;1.50;;;;;;;;;;5157297;27;20030;-78
2021/12/26 13:24:40;;;;;;;7.30;1.42;;;;;;;;;;5158242;27;20046;-77
2021/12/26 13:27:08;;;;;;;7.05;1.67;;;;;;;;;;5158202;27;20501;-77
2021/12/26 13:29:36;;;;;;;6.70;1.45;;;;;;;;;;5158176;27;20097;-77
2021/12/26 13:32:03;;;;;;;7.80;1.92;;;;;;;;;;5158159;27;20050;-77
2021/12/26 13:34:31;;;;;;;7.43;1.92;;;;;;;;;;5158211;27;20364;-77
2021/12/26 13:37:01;;;;;;;7.75;1.45;;;;;;;;;;5158082;27;20049;-77
2021/12/26 13:39:29;;;;;;;8.25;1.70;;;;;;;;;;5139557;27;20110;-77
2021/12/26 13:41:56;;;;;;;6.97;1.20;;;;;;;;;;5157793;27;20497;-76
2021/12/26 13:44:23;;;;;;;7.05;1.52;;;;;;;;;;5139081;27;20014;-77
2021/12/26 13:46:58;;;;;;;12.18;2.30;;;;;;;;;;5157896;27;20019;-77
2021/12/26 13:49:25;;;;;;;7.40;1.70;;;;;;;;;;5139409;27;20026;-77
2021/12/26 13:51:55;;;;;;;7.22;1.40;;;;;;;;;;5158001;27;20116;-77
2021/12/26 13:54:22;;;;;;;;;;;;;;;;;;5139203;27;20053;-76
2021/12/26 13:56:52;;;;;;;6.88;1.48;;;;;;;;;;5157771;27;19903;-78
2021/12/26 13:59:29;;;;;;;8.73;1.80;;;;;;;;;;5157710;27;20018;-78
2021/12/26 14:01:56;;;;;;;10.75;2.08;;;;;;;;;;5139127;27;20103;-77
2021/12/26 14:04:23;;;;;;;12.80;2.17;;;;;;;;;;5157631;27;20022;-78
2021/12/26 14:06:51;;;;;;;9.23;2.00;;;;;;;;;;5157584;27;20490;-78
2021/12/26 14:09:18;;;;;;;9.68;2.03;;;;;;;;;;5157479;27;20421;-78
2021/12/26 14:11:45;;;;;;;10.50;2.25;;;;;;;;;;5138907;27;20079;-78
2021/12/26 14:14:12;;;;;;;8.88;2.30;;;;;;;;;;5157518;27;20467;-78
2021/12/26 14:16:43;;;;;;;11.20;2.60;;;;;;;;;;5157372;27;20025;-78
2021/12/26 14:19:11;;;;;;;9.68;2.05;;;;;;;;;;5158039;27;20015;-78
2021/12/26 14:21:43;;;;;;;10.35;2.42;;;;;;;;;;5138344;27;20457;-78
2021/12/26 14:24:11;;;;;;;13.15;2.45;;;;;;;;;;5157354;27;20047;-77
2021/12/26 14:26:42;;;;;;;14.10;2.75;;;;;;;;;;5138527;27;20105;-78
2021/12/26 14:29:14;;;;;;;12.98;2.47;;;;;;;;;;5138583;27;20019;-77
2021/12/26 14:31:50;;;;;;;14.23;3.00;;;;;;;;;;5156719;27;20019;-77
2021/12/26 14:34:20;;;;;;;9.77;2.45;;;;;;;;;;5156625;27;20364;-79
2021/12/26 14:36:49;;;;;;;14.60;3.25;;;;;;;;;;5138839;27;20367;-79
2021/12/26 14:39:16;;;;;;;15.10;2.50;;;;;;;;;;5138401;27;20055;-79
2021/12/26 14:41:46;;;;;;;11.38;2.60;;;;;;;;;;5157038;27;20022;-79
2021/12/26 14:44:26;;;;;;;15.02;2.88;;;;;;;;;;5157008;27;20014;-79
2021/12/26 14:47:08;;;;;;;12.57;2.83;;;;;;;;;;5156975;27;20022;-80
2021/12/26 14:49:41;;;;;;;11.75;2.97;;;;;;;;;;5157047;27;20015;-79
2021/12/26 14:52:08;;;;;;;13.05;2.88;;;;;;;;;;5138012;27;20027;-80
2021/12/26 14:54:43;;;;;;;13.27;2.67;;;;;;;;;;5137949;27;20047;-79